createdAt,value
2019-06-07T00:00:41.744Z,96261.28
2019-06-07T00:03:15.793Z,96261.55
2019-06-07T00:05:40.274Z,96253.58
2019-06-07T00:08:17.116Z,96257.20
2019-06-07T00:10:39.099Z,96255.12
2019-06-07T00:13:07.562Z,96257.14
2019-06-07T00:15:36.015Z,96255.20
2019-06-07T00:18:04.456Z,96250.51
2019-06-07T00:20:32.858Z,96249.17
2019-06-07T00:23:01.286Z,96243.95
2019-06-07T00:25:29.682Z,96241.88
2019-06-07T00:27:58.082Z,96234.27
2019-06-07T00:30:41.292Z,96230.60
2019-06-07T00:32:56.718Z,96235.22
2019-06-07T00:35:25.129Z,96229.73
2019-06-07T00:37:53.561Z,96230.86
2019-06-07T00:40:31.123Z,96222.23
2019-06-07T00:42:52.087Z,96216.89
2019-06-07T00:45:22.443Z,96211.98
2019-06-07T00:47:50.730Z,96209.66
2019-06-07T00:50:23.532Z,96207.31
2019-06-07T00:55:23.435Z,96194.28
2019-06-07T00:57:51.118Z,96192.97
2019-06-07T01:00:23.587Z,96190.34
2019-06-07T01:02:50.634Z,96190.40
2019-06-07T01:05:22.534Z,96185.15
2019-06-07T01:07:49.271Z,96186.28
2019-06-07T01:10:46.272Z,96179.17
2019-06-07T01:12:48.557Z,96169.61
2019-06-07T01:15:20.573Z,96167.83
2019-06-07T01:18:33.009Z,96166.36
2019-06-07T01:20:22.282Z,96156.80
2019-06-07T01:22:49.452Z,96160.59
2019-06-07T01:25:18.969Z,96152.99
2019-06-07T01:27:48.207Z,96147.64
2019-06-07T01:30:18.845Z,96141.41
2019-06-07T01:32:47.359Z,96144.81
2019-06-07T01:35:16.580Z,96138.13
2019-06-07T01:37:45.037Z,96134.75
2019-06-07T01:40:14.108Z,96133.94
2019-06-07T01:42:42.480Z,96133.20
2019-06-07T01:45:11.947Z,96127.86
2019-06-07T01:47:40.406Z,96121.38
2019-06-07T01:50:10.879Z,96122.72
2019-06-07T01:52:39.356Z,96118.11
2019-06-07T01:55:08.098Z,96120.39
2019-06-07T01:57:47.322Z,96115.28
2019-06-07T02:00:07.846Z,96113.03
2019-06-07T02:02:36.242Z,96114.42
2019-06-07T02:05:06.548Z,96111.16
2019-06-07T02:07:35.349Z,96102.14
2019-06-07T02:10:05.999Z,96103.99
2019-06-07T02:12:42.760Z,96095.69
2019-06-07T02:15:07.614Z,96094.64
2019-06-07T02:17:36.074Z,96088.70
2019-06-07T02:20:06.717Z,96086.94
2019-06-07T02:22:35.241Z,96082.59
2019-06-07T02:25:35.148Z,96082.61
2019-06-07T02:27:34.524Z,96073.18
2019-06-07T02:30:35.252Z,96067.77
2019-06-07T02:32:36.715Z,96068.50
2019-06-07T02:35:05.272Z,96072.50
2019-06-07T02:37:36.763Z,96068.70
2019-06-07T02:40:08.795Z,96064.09
2019-06-07T02:42:41.879Z,96067.41
2019-06-07T02:45:10.890Z,96073.77
2019-06-07T02:47:39.707Z,96074.98
2019-06-07T02:50:12.062Z,96065.95
2019-06-07T02:52:41.738Z,96068.09
2019-06-07T02:55:14.830Z,96068.37
2019-06-07T02:57:43.448Z,96077.31
2019-06-07T03:00:42.255Z,96066.42
2019-06-07T03:02:45.192Z,96068.56
2019-06-07T03:05:13.933Z,96072.86
2019-06-07T03:07:44.992Z,96073.70
2019-06-07T03:10:13.308Z,96071.86
2019-06-07T03:12:45.222Z,96069.23
2019-06-07T03:15:32.037Z,96066.38
2019-06-07T03:18:04.049Z,96070.98
2019-06-07T03:20:36.276Z,96072.03
2019-06-07T03:23:05.126Z,96072.75
2019-06-07T03:25:39.122Z,96067.54
2019-06-07T03:28:07.771Z,96068.87
2019-06-07T03:30:48.262Z,96072.69
2019-06-07T03:33:06.383Z,96071.34
2019-06-07T03:35:37.342Z,96074.42
2019-06-07T03:38:05.216Z,96072.88
2019-06-07T03:40:36.760Z,96075.75
2019-06-07T03:43:03.778Z,96080.50
2019-06-07T03:45:33.245Z,96088.98
2019-06-07T03:48:02.313Z,96094.44
2019-06-07T03:50:33.446Z,96098.06
2019-06-07T03:53:00.876Z,96099.30
2019-06-07T03:55:30.375Z,96103.81
2019-06-07T03:58:30.742Z,96104.95
2019-06-07T04:00:32.964Z,96102.48
2019-06-07T04:02:59.699Z,96105.54
2019-06-07T04:05:29.606Z,96108.82
2019-06-07T04:07:58.376Z,96107.92
2019-06-07T04:10:44.838Z,96105.34
2019-06-07T04:12:56.956Z,96100.95
2019-06-07T04:15:25.367Z,96104.81
2019-06-07T04:18:02.091Z,96104.18
2019-06-07T04:20:23.972Z,96104.30
2019-06-07T04:22:52.377Z,96109.92
2019-06-07T04:25:20.788Z,96105.08
2019-06-07T04:27:49.212Z,96112.36
2019-06-07T04:30:39.551Z,96112.13
2019-06-07T04:33:09.728Z,96105.04
2019-06-07T04:35:42.545Z,96105.13
2019-06-07T04:38:11.310Z,96102.74
2019-06-07T04:40:42.939Z,96102.33
2019-06-07T04:43:21.578Z,96100.80
2019-06-07T04:45:51.705Z,96096.66
2019-06-07T04:48:21.510Z,96099.82
2019-06-07T04:50:51.040Z,96098.07
2019-06-07T04:53:20.993Z,96094.80
2019-06-07T04:55:49.421Z,96098.97
2019-06-07T04:58:17.797Z,96101.63
2019-06-07T05:00:52.814Z,96099.28
2019-06-07T05:03:16.353Z,96094.23
2019-06-07T05:05:44.824Z,96099.57
2019-06-07T05:08:27.511Z,96095.36
2019-06-07T05:10:44.174Z,96084.15
2019-06-07T05:13:12.766Z,96077.47
2019-06-07T05:15:42.377Z,96065.04
2019-06-07T05:18:10.946Z,96072.11
2019-06-07T05:20:41.595Z,96062.37
2019-06-07T05:23:09.593Z,96057.50
2019-06-07T05:25:42.214Z,96056.27
2019-06-07T05:28:08.186Z,96055.43
2019-06-07T05:33:09.809Z,96059.10
2019-06-07T05:35:41.692Z,96059.23
2019-06-07T05:38:09.710Z,96059.63
2019-06-07T05:40:48.381Z,96065.27
2019-06-07T05:43:25.430Z,96063.88
2019-06-07T05:45:53.906Z,96063.64
2019-06-07T05:48:22.748Z,96058.89
2019-06-07T05:50:56.911Z,96049.47
2019-06-07T05:53:21.656Z,96050.60
2019-06-07T05:55:49.989Z,96050.05
2019-06-07T05:58:18.961Z,96052.13
2019-06-07T06:00:47.909Z,96060.53
2019-06-07T06:03:16.629Z,96069.23
2019-06-07T06:05:53.863Z,96075.23
2019-06-07T06:08:15.284Z,96077.66
2019-06-07T06:10:48.324Z,96072.39
2019-06-07T06:13:13.812Z,96063.73
2019-06-07T06:15:56.308Z,96066.20
2019-06-07T06:18:12.800Z,96066.27
2019-06-07T06:21:05.291Z,96063.53
2019-06-07T06:23:11.440Z,96069.22
2019-06-07T06:25:42.664Z,96068.34
2019-06-07T06:28:13.097Z,96067.67
2019-06-07T06:30:47.006Z,96067.67
2019-06-07T06:33:30.466Z,96062.92
2019-06-07T06:35:43.063Z,96063.63
2019-06-07T06:38:12.655Z,96068.38
2019-06-07T06:40:45.030Z,96052.82
2019-06-07T06:43:11.206Z,96051.79
2019-06-07T06:45:40.134Z,96048.67
2019-06-07T06:48:08.602Z,96050.29
2019-06-07T06:50:38.601Z,96048.88
2019-06-07T06:53:07.611Z,96045.98
2019-06-07T06:55:36.221Z,96044.39
2019-06-07T06:58:04.810Z,96042.52
2019-06-07T07:00:53.765Z,96043.05
2019-06-07T07:05:49.781Z,96033.24
2019-06-07T07:08:16.533Z,96026.75
2019-06-07T07:10:48.636Z,96030.50
2019-06-07T07:13:16.467Z,96029.27
2019-06-07T07:15:47.252Z,96031.56
2019-06-07T07:18:14.982Z,96028.55
2019-06-07T07:20:45.268Z,96023.05
2019-06-07T07:23:13.585Z,96022.29
2019-06-07T07:25:43.501Z,96021.64
2019-06-07T07:28:12.579Z,96019.45
2019-06-07T07:30:57.183Z,96012.88
2019-06-07T07:33:25.597Z,96017.05
2019-06-07T07:36:15.807Z,96013.83
2019-06-07T07:38:24.159Z,96001.67
2019-06-07T07:41:06.933Z,96002.42
2019-06-07T07:43:23.016Z,96002.55
2019-06-07T07:45:59.168Z,95998.14
2019-06-07T07:48:21.599Z,95995.62
2019-06-07T07:50:54.573Z,95999.74
2019-06-07T07:53:20.324Z,95994.03
2019-06-07T07:55:50.409Z,95991.78
2019-06-07T07:58:18.836Z,95979.81
2019-06-07T08:00:59.066Z,95982.41
2019-06-07T08:03:17.474Z,95976.13
2019-06-07T08:05:47.253Z,95966.91
2019-06-07T08:08:16.168Z,95963.89
2019-06-07T08:10:44.630Z,95964.07
2019-06-07T08:13:24.674Z,95967.16
2019-06-07T08:15:43.346Z,95962.70
2019-06-07T08:18:11.743Z,95957.75
2019-06-07T08:20:40.172Z,95954.42
2019-06-07T08:23:08.787Z,95957.27
2019-06-07T08:25:37.183Z,95946.36
2019-06-07T08:28:05.642Z,95948.34
2019-06-07T08:30:49.846Z,95953.03
2019-06-07T08:33:24.677Z,95939.72
2019-06-07T08:40:34.971Z,95933.98
2019-06-07T08:43:18.459Z,95926.81
2019-06-07T08:45:33.473Z,95925.17
2019-06-07T08:48:13.037Z,95928.96
2019-06-07T08:50:31.993Z,95923.97
2019-06-07T08:53:11.221Z,95910.97
2019-06-07T08:55:30.617Z,95914.33
2019-06-07T08:58:04.141Z,95910.69
2019-06-07T09:00:45.466Z,95905.23
2019-06-07T09:03:05.073Z,95908.28
2019-06-07T09:05:30.962Z,95905.16
2019-06-07T09:08:25.979Z,95902.55
2019-06-07T09:10:29.505Z,95898.01
2019-06-07T09:13:03.003Z,95889.98
2019-06-07T09:15:28.070Z,95892.73
2019-06-07T09:18:35.351Z,95890.62
2019-06-07T09:20:36.858Z,95890.73
2019-06-07T09:23:06.722Z,95890.11
2019-06-07T09:25:30.098Z,95885.31
2019-06-07T09:28:06.717Z,95881.27
2019-06-07T09:30:40.934Z,95882.38
2019-06-07T09:33:10.736Z,95881.91
2019-06-07T09:35:39.861Z,95878.73
2019-06-07T09:38:23.418Z,95873.66
2019-06-07T09:40:38.856Z,95870.47
2019-06-07T09:43:54.286Z,95868.34
2019-06-07T09:45:37.743Z,95865.69
2019-06-07T09:48:13.728Z,95858.95
2019-06-07T09:50:36.389Z,95857.08
2019-06-07T09:53:13.965Z,95855.19
2019-06-07T09:55:35.529Z,95849.24
2019-06-07T09:58:45.385Z,95845.77
2019-06-07T10:00:40.565Z,95845.24
2019-06-07T10:03:16.826Z,95831.16
2019-06-07T10:05:34.989Z,95826.30
2019-06-07T10:08:21.829Z,95819.77
2019-06-07T10:13:03.786Z,95819.44
2019-06-07T10:15:32.571Z,95808.62
2019-06-07T10:18:00.960Z,95805.33
2019-06-07T10:20:29.370Z,95806.05
2019-06-07T10:22:59.393Z,95810.05
2019-06-07T10:25:28.055Z,95802.38
2019-06-07T10:27:56.464Z,95796.09
2019-06-07T10:30:25.227Z,95796.32
2019-06-07T10:32:53.698Z,95797.07
2019-06-07T10:35:22.101Z,95791.56
2019-06-07T10:37:50.564Z,95797.42
2019-06-07T10:40:20.190Z,95794.92
2019-06-07T10:42:48.592Z,95794.34
2019-06-07T10:45:17.078Z,95788.04
2019-06-07T10:47:45.471Z,95785.98
2019-06-07T10:50:15.707Z,95787.50
2019-06-07T10:52:44.129Z,95780.84
2019-06-07T10:55:13.049Z,95776.06
2019-06-07T10:57:41.453Z,95774.34
2019-06-07T11:00:11.770Z,95777.52
2019-06-07T11:02:40.224Z,95761.23
2019-06-07T11:05:10.078Z,95761.23
2019-06-07T11:07:38.661Z,95761.50
2019-06-07T11:10:13.329Z,95761.50
2019-06-07T11:12:37.720Z,95764.63
2019-06-07T11:15:08.831Z,95752.49
2019-06-07T11:17:37.354Z,95754.19
2019-06-07T11:20:08.308Z,95751.52
2019-06-07T11:22:36.878Z,95754.02
2019-06-07T11:25:07.792Z,95757.19
2019-06-07T11:27:36.339Z,95752.12
2019-06-07T11:30:08.503Z,95749.95
2019-06-07T11:32:36.952Z,95742.39
2019-06-07T11:35:11.496Z,95750.13
2019-06-07T11:37:39.568Z,95749.42
2019-06-07T11:40:27.945Z,95750.08
2019-06-07T11:42:41.004Z,95741.31
2019-06-07T11:45:10.677Z,95732.28
2019-06-07T11:47:40.322Z,95730.30
2019-06-07T11:50:09.574Z,95728.64
2019-06-07T11:52:39.250Z,95728.08
2019-06-07T11:55:09.307Z,95727.93
2019-06-07T11:57:38.250Z,95720.16
2019-06-07T12:00:11.634Z,95723.75
2019-06-07T12:02:40.143Z,95724.63
2019-06-07T12:05:10.417Z,95721.14
2019-06-07T12:07:39.305Z,95716.13
2019-06-07T12:10:10.653Z,95717.39
2019-06-07T12:12:39.287Z,95720.02
2019-06-07T12:15:08.903Z,95714.36
2019-06-07T12:17:37.632Z,95703.02
2019-06-07T12:20:08.798Z,95699.62
2019-06-07T12:22:37.757Z,95696.52
2019-06-07T12:25:10.387Z,95697.41
2019-06-07T12:27:39.439Z,95691.95
2019-06-07T12:30:16.751Z,95689.53
2019-06-07T12:32:39.328Z,95684.98
2019-06-07T12:35:08.451Z,95683.53
2019-06-07T12:37:43.675Z,95689.75
2019-06-07T12:40:08.263Z,95680.80
2019-06-07T12:42:36.925Z,95685.98
2019-06-07T12:45:08.890Z,95676.23
2019-06-07T12:47:37.283Z,95668.89
2019-06-07T12:50:07.626Z,95669.66
2019-06-07T12:52:37.427Z,95664.58
2019-06-07T12:55:07.357Z,95660.27
2019-06-07T12:57:35.764Z,95663.40
2019-06-07T13:00:07.615Z,95656.66
2019-06-07T13:02:36.009Z,95655.25
2019-06-07T13:05:09.581Z,95646.18
2019-06-07T13:07:38.081Z,95647.89
2019-06-07T13:10:07.825Z,95643.95
2019-06-07T13:12:36.229Z,95646.44
2019-06-07T13:15:06.375Z,95641.75
2019-06-07T13:17:34.872Z,95648.44
2019-06-07T13:20:04.265Z,95648.77
2019-06-07T13:22:32.677Z,95647.88
2019-06-07T13:25:01.075Z,95647.80
2019-06-07T13:27:33.400Z,95639.09
2019-06-07T13:29:59.795Z,95640.78
2019-06-07T13:32:28.271Z,95632.89
2019-06-07T13:34:56.663Z,95637.25
2019-06-07T13:37:25.480Z,95644.41
2019-06-07T13:39:54.022Z,95632.20
2019-06-07T13:42:22.828Z,95625.84
2019-06-07T13:44:51.496Z,95625.11
2019-06-07T13:47:21.079Z,95623.95
2019-06-07T13:49:49.697Z,95622.33
2019-06-07T13:52:18.135Z,95630.23
2019-06-07T13:54:46.529Z,95623.92
2019-06-07T13:57:14.925Z,95618.06
2019-06-07T13:59:43.566Z,95625.13
2019-06-07T14:02:12.063Z,95618.02
2019-06-07T14:04:40.465Z,95615.97
2019-06-07T14:07:08.886Z,95607.91
2019-06-07T14:09:37.489Z,95608.08
2019-06-07T14:12:05.893Z,95608.02
2019-06-07T14:14:34.320Z,95597.26
2019-06-07T14:17:02.754Z,95596.83
2019-06-07T14:19:31.139Z,95593.40
2019-06-07T14:21:59.817Z,95586.91
2019-06-07T14:24:29.171Z,95577.69
2019-06-07T14:27:06.645Z,95582.20
2019-06-07T14:29:37.275Z,95573.66
2019-06-07T14:32:07.023Z,95579.13
2019-06-07T14:34:35.799Z,95581.05
2019-06-07T14:37:05.513Z,95574.63
2019-06-07T14:39:33.985Z,95577.82
2019-06-07T14:42:09.248Z,95572.20
2019-06-07T14:44:33.877Z,95570.22
2019-06-07T14:47:02.502Z,95563.29
2019-06-07T14:49:32.754Z,95565.70
2019-06-07T14:52:01.294Z,95567.05
2019-06-07T14:54:32.276Z,95562.46
2019-06-07T14:57:03.051Z,95545.22
2019-06-07T14:59:30.450Z,95556.66
2019-06-07T15:01:59.080Z,95549.12
2019-06-07T15:04:28.641Z,95551.72
2019-06-07T15:06:57.133Z,95560.98
2019-06-07T15:09:26.866Z,95554.13
2019-06-07T15:11:55.938Z,95552.30
2019-06-07T15:14:24.337Z,95548.46
2019-06-07T15:16:52.741Z,95555.89
2019-06-07T15:19:23.955Z,95559.86
2019-06-07T15:21:51.329Z,95551.67
2019-06-07T15:24:19.731Z,95551.45
2019-06-07T15:26:48.175Z,95547.48
2019-06-07T15:29:16.610Z,95536.31
2019-06-07T15:31:45.046Z,95533.72
2019-06-07T15:34:15.081Z,95529.35
2019-06-07T15:36:43.477Z,95528.56
2019-06-07T15:39:11.877Z,95523.20
2019-06-07T15:41:40.329Z,95520.42
2019-06-07T15:44:08.724Z,95521.35
2019-06-07T15:46:38.033Z,95524.25
2019-06-07T15:49:06.833Z,95517.56
2019-06-07T15:51:36.786Z,95519.73
2019-06-07T15:54:05.610Z,95510.72
2019-06-07T15:56:34.711Z,95517.26
2019-06-07T15:59:03.162Z,95510.92
2019-06-07T16:01:31.552Z,95514.13
2019-06-07T16:03:59.978Z,95511.25
2019-06-07T16:06:28.381Z,95516.88
2019-06-07T16:08:56.812Z,95518.71
2019-06-07T16:11:25.250Z,95518.06
2019-06-07T16:13:53.645Z,95513.08
2019-06-07T16:16:22.049Z,95512.90
2019-06-07T16:18:52.584Z,95507.20
2019-06-07T16:21:20.993Z,95515.23
2019-06-07T16:23:49.394Z,95516.01
2019-06-07T16:26:17.825Z,95514.66
2019-06-07T16:28:46.220Z,95511.92
2019-06-07T16:31:14.632Z,95512.03
2019-06-07T16:33:43.276Z,95506.66
2019-06-07T16:36:11.709Z,95505.18
2019-06-07T16:38:40.202Z,95507.53
2019-06-07T16:41:08.616Z,95504.95
2019-06-07T16:43:38.456Z,95502.65
2019-06-07T16:46:07.058Z,95505.70
2019-06-07T16:48:36.798Z,95504.61
2019-06-07T16:51:05.412Z,95507.42
2019-06-07T16:53:33.806Z,95500.22
2019-06-07T16:56:02.340Z,95497.17
2019-06-07T16:58:30.922Z,95508.35
2019-06-07T17:00:59.349Z,95509.25
2019-06-07T17:03:27.774Z,95506.73
2019-06-07T17:05:58.521Z,95497.36
2019-06-07T17:08:26.923Z,95495.63
2019-06-07T17:10:55.496Z,95494.41
2019-06-07T17:13:32.828Z,95499.41
2019-06-07T17:15:54.010Z,95494.02
2019-06-07T17:18:22.515Z,95489.94
2019-06-07T17:20:50.913Z,95495.41
2019-06-07T17:23:19.309Z,95492.45
2019-06-07T17:25:47.797Z,95496.56
2019-06-07T17:28:16.281Z,95498.95
2019-06-07T17:30:46.010Z,95496.08
2019-06-07T17:33:14.627Z,95493.39
2019-06-07T17:35:44.619Z,95494.08
2019-06-07T17:38:13.188Z,95494.58
2019-06-07T17:40:42.740Z,95488.44
2019-06-07T17:43:11.284Z,95488.43
2019-06-07T17:45:41.148Z,95493.97
2019-06-07T17:48:10.027Z,95484.64
2019-06-07T17:50:38.386Z,95485.05
2019-06-07T17:53:06.783Z,95483.66
2019-06-07T17:55:35.319Z,95490.80
2019-06-07T17:58:03.677Z,95488.05
2019-06-07T18:00:53.107Z,95489.86
2019-06-07T18:03:21.761Z,95490.96
2019-06-07T18:05:51.404Z,95491.69
2019-06-07T18:08:20.245Z,95498.45
2019-06-07T18:10:50.059Z,95499.28
2019-06-07T18:13:18.563Z,95500.52
2019-06-07T18:15:52.948Z,95504.05
2019-06-07T18:18:21.069Z,95505.14
2019-06-07T18:20:49.471Z,95522.14
2019-06-07T18:23:17.993Z,95524.59
2019-06-07T18:25:46.530Z,95528.01
2019-06-07T18:28:14.965Z,95535.86
2019-06-07T18:30:43.617Z,95536.36
2019-06-07T18:33:12.020Z,95530.84
2019-06-07T18:35:40.431Z,95531.30
2019-06-07T18:38:10.938Z,95539.95
2019-06-07T18:40:39.494Z,95541.69
2019-06-07T18:43:07.961Z,95544.78
2019-06-07T18:45:36.672Z,95542.94
2019-06-07T18:48:05.837Z,95555.17
2019-06-07T18:50:34.802Z,95559.92
2019-06-07T18:53:03.325Z,95550.33
2019-06-07T18:55:31.741Z,95554.72
2019-06-07T18:58:00.144Z,95559.59
2019-06-07T19:00:29.310Z,95565.67
2019-06-07T19:02:58.123Z,95566.83
2019-06-07T19:05:26.954Z,95573.00
2019-06-07T19:07:56.589Z,95576.62
2019-06-07T19:10:25.439Z,95569.64
2019-06-07T19:12:55.283Z,95572.45
2019-06-07T19:15:25.803Z,95581.58
2019-06-07T19:17:54.277Z,95591.39
2019-06-07T19:20:23.428Z,95595.83
2019-06-07T19:22:52.106Z,95596.45
2019-06-07T19:25:20.734Z,95613.91
2019-06-07T19:27:50.524Z,95613.92
2019-06-07T19:30:20.828Z,95617.17
2019-06-07T19:32:50.143Z,95627.08
2019-06-07T19:35:20.139Z,95639.88
2019-06-07T19:37:48.572Z,95644.84
2019-06-07T19:40:17.533Z,95648.34
2019-06-07T19:42:45.907Z,95649.23
2019-06-07T19:45:31.630Z,95669.20
2019-06-07T19:47:45.372Z,95669.20
2019-06-07T19:50:15.110Z,95673.63
2019-06-07T19:52:43.542Z,95686.16
2019-06-07T19:55:12.505Z,95685.72
2019-06-07T19:57:40.923Z,95697.25
2019-06-07T20:00:14.723Z,95702.74
2019-06-07T20:02:41.460Z,95711.72
2019-06-07T20:05:14.889Z,95708.17
2019-06-07T20:07:43.515Z,95713.16
2019-06-07T20:10:13.914Z,95726.73
2019-06-07T20:12:42.326Z,95729.52
2019-06-07T20:15:27.910Z,95733.16
2019-06-07T20:17:41.567Z,95734.23
2019-06-07T20:20:10.898Z,95736.38
2019-06-07T20:22:39.437Z,95747.23
2019-06-07T20:25:09.275Z,95755.42
2019-06-07T20:27:37.770Z,95759.23
2019-06-07T20:30:11.205Z,95771.98
2019-06-07T20:32:39.619Z,95771.19
2019-06-07T20:35:08.476Z,95791.00
2019-06-07T20:37:36.958Z,95800.79
2019-06-07T20:40:19.529Z,95810.27
2019-06-07T20:42:37.324Z,95818.94
2019-06-07T20:45:08.220Z,95830.61
2019-06-07T20:47:36.782Z,95841.97
2019-06-07T20:50:09.327Z,95866.34
2019-06-07T20:52:38.524Z,95881.20
2019-06-07T20:55:09.469Z,95883.65
2019-06-07T20:57:38.182Z,95888.52
2019-06-07T21:00:20.596Z,95898.27
2019-06-07T21:02:40.843Z,95910.69
2019-06-07T21:05:10.108Z,95918.56
2019-06-07T21:07:38.780Z,95927.21
2019-06-07T21:10:10.880Z,95929.64
2019-06-07T21:12:39.413Z,95939.11
2019-06-07T21:15:12.102Z,95940.75
2019-06-07T21:17:38.442Z,95947.77
2019-06-07T21:20:13.541Z,95952.11
2019-06-07T21:22:38.437Z,95960.48
2019-06-07T21:25:09.236Z,95963.77
2019-06-07T21:27:37.793Z,95980.54
2019-06-07T21:30:11.388Z,95978.91
2019-06-07T21:32:40.043Z,95992.17
2019-06-07T21:35:10.156Z,96001.91
2019-06-07T21:37:38.793Z,96004.88
2019-06-07T21:40:08.495Z,96013.00
2019-06-07T21:42:36.999Z,96016.52
2019-06-07T21:45:09.909Z,96023.25
2019-06-07T21:47:38.692Z,96041.10
2019-06-07T21:50:08.693Z,96044.08
2019-06-07T21:52:37.453Z,96047.04
2019-06-07T21:55:07.304Z,96055.41
2019-06-07T21:57:36.253Z,96061.89
2019-06-07T22:00:23.110Z,96064.56
2019-06-07T22:02:51.672Z,96079.66
2019-06-07T22:05:20.066Z,96088.83
2019-06-07T22:07:48.676Z,96102.86
2019-06-07T22:10:17.414Z,96117.18
2019-06-07T22:12:45.818Z,96138.77
2019-06-07T22:15:32.189Z,96170.90
2019-06-07T22:17:44.521Z,96189.66
2019-06-07T22:20:13.083Z,96208.47
2019-06-07T22:22:41.524Z,96234.95
2019-06-07T22:25:11.048Z,96261.98
2019-06-07T22:27:39.552Z,96282.27
2019-06-07T22:30:08.791Z,96296.22
2019-06-07T22:32:37.219Z,96311.94
2019-06-07T22:35:08.945Z,96310.04
2019-06-07T22:37:37.617Z,96338.11
2019-06-07T22:40:08.603Z,96359.84
2019-06-07T22:42:37.516Z,96367.74
2019-06-07T22:45:07.948Z,96390.71
2019-06-07T22:47:36.695Z,96405.23
2019-06-07T22:50:08.563Z,96428.55
2019-06-07T22:52:37.169Z,96445.08
2019-06-07T22:55:07.787Z,96458.69
2019-06-07T22:57:55.813Z,96471.91
2019-06-07T23:00:25.431Z,96485.78
2019-06-07T23:02:53.829Z,96500.45
2019-06-07T23:05:22.358Z,96514.16
2019-06-07T23:07:50.754Z,96516.13
2019-06-07T23:10:19.668Z,96528.45
2019-06-07T23:12:48.321Z,96542.64
2019-06-07T23:15:20.630Z,96545.77
2019-06-07T23:17:48.627Z,96555.17
2019-06-07T23:20:18.031Z,96558.23
2019-06-07T23:22:46.472Z,96559.64
2019-06-07T23:25:21.869Z,96569.52
2019-06-07T23:27:46.442Z,96571.89
2019-06-07T23:30:16.514Z,96573.61
2019-06-07T23:32:45.147Z,96567.58
2019-06-07T23:35:14.878Z,96572.42
2019-06-07T23:37:43.434Z,96576.08
2019-06-07T23:40:13.438Z,96570.13
2019-06-07T23:42:42.034Z,96571.37
2019-06-07T23:45:12.072Z,96574.58
2019-06-07T23:47:40.791Z,96574.20
2019-06-07T23:50:09.462Z,96573.02
2019-06-07T23:52:37.862Z,96577.20
2019-06-07T23:55:08.196Z,96582.36
2019-06-07T23:57:36.670Z,96581.15
